sensor_id;sensor_type;location;lat;lon;timestamp;pressure;altitude;pressure_sealevel;temperature;humidity
12182;BME280;6154;51.550;12.138;2023-05-01T00:00:56;100974.84;;;10.44;45.25
12182;BME280;6154;51.550;12.138;2023-05-01T00:03:26;100970.47;;;10.43;45.35
12182;BME280;6154;51.550;12.138;2023-05-01T00:05:58;100966.97;;;10.42;45.99
12182;BME280;6154;51.550;12.138;2023-05-01T00:08:27;100961.88;;;10.38;46.24
12182;BME280;6154;51.550;12.138;2023-05-01T00:10:56;100961.09;;;10.35;45.92
12182;BME280;6154;51.550;12.138;2023-05-01T00:13:29;100961.25;;;10.32;45.53
12182;BME280;6154;51.550;12.138;2023-05-01T00:15:57;100957.00;;;10.28;45.47
12182;BME280;6154;51.550;12.138;2023-05-01T00:18:26;100952.78;;;10.24;45.78
12182;BME280;6154;51.550;12.138;2023-05-01T00:20:56;100946.63;;;10.24;45.89
12182;BME280;6154;51.550;12.138;2023-05-01T00:23:25;100939.56;;;10.24;46.85
12182;BME280;6154;51.550;12.138;2023-05-01T00:25:54;100937.78;;;10.25;47.09
12182;BME280;6154;51.550;12.138;2023-05-01T00:28:24;100935.06;;;10.26;47.20
12182;BME280;6154;51.550;12.138;2023-05-01T00:30:52;100932.25;;;10.29;47.27
12182;BME280;6154;51.550;12.138;2023-05-01T00:33:20;100928.59;;;10.32;46.96
12182;BME280;6154;51.550;12.138;2023-05-01T00:35:48;100928.56;;;10.33;46.47
12182;BME280;6154;51.550;12.138;2023-05-01T00:38:17;100933.00;;;10.33;46.63
12182;BME280;6154;51.550;12.138;2023-05-01T00:40:46;100936.62;;;10.30;46.30
12182;BME280;6154;51.550;12.138;2023-05-01T00:43:14;100930.47;;;10.30;46.54
12182;BME280;6154;51.550;12.138;2023-05-01T00:45:44;100928.69;;;10.30;46.98
12182;BME280;6154;51.550;12.138;2023-05-01T00:48:13;100939.34;;;10.29;46.85
12182;BME280;6154;51.550;12.138;2023-05-01T00:50:43;100920.91;;;10.27;46.45
12182;BME280;6154;51.550;12.138;2023-05-01T00:53:11;100925.34;;;10.27;46.57
12182;BME280;6154;51.550;12.138;2023-05-01T00:55:40;100921.91;;;10.25;46.80
12182;BME280;6154;51.550;12.138;2023-05-01T00:58:09;100922.91;;;10.22;46.94
12182;BME280;6154;51.550;12.138;2023-05-01T01:00:38;100916.78;;;10.20;47.17
12182;BME280;6154;51.550;12.138;2023-05-01T01:03:07;100915.22;;;10.16;47.08
12182;BME280;6154;51.550;12.138;2023-05-01T01:05:39;100907.53;;;10.10;46.82
12182;BME280;6154;51.550;12.138;2023-05-01T01:08:14;100902.53;;;10.04;46.83
12182;BME280;6154;51.550;12.138;2023-05-01T01:10:52;100909.66;;;10.02;46.64
12182;BME280;6154;51.550;12.138;2023-05-01T01:13:27;100901.72;;;10.02;46.46
12182;BME280;6154;51.550;12.138;2023-05-01T01:16:03;100908.97;;;9.98;46.09
12182;BME280;6154;51.550;12.138;2023-05-01T01:18:40;100894.09;;;9.96;46.25
12182;BME280;6154;51.550;12.138;2023-05-01T01:21:15;100897.66;;;9.95;46.23
12182;BME280;6154;51.550;12.138;2023-05-01T01:27:17;100885.47;;;9.92;48.04
12182;BME280;6154;51.550;12.138;2023-05-01T01:29:55;100888.22;;;9.89;47.36
12182;BME280;6154;51.550;12.138;2023-05-01T01:33:06;100881.37;;;9.85;46.36
12182;BME280;6154;51.550;12.138;2023-05-01T01:35:49;100879.56;;;9.86;46.98
12182;BME280;6154;51.550;12.138;2023-05-01T01:38:24;100883.34;;;9.80;46.41
12182;BME280;6154;51.550;12.138;2023-05-01T01:40:58;100878.19;;;9.77;45.73
12182;BME280;6154;51.550;12.138;2023-05-01T01:43:31;100877.50;;;9.73;46.01
12182;BME280;6154;51.550;12.138;2023-05-01T01:46:06;100874.09;;;9.70;45.83
12182;BME280;6154;51.550;12.138;2023-05-01T01:48:38;100874.09;;;9.70;46.00
12182;BME280;6154;51.550;12.138;2023-05-01T01:51:12;100868.03;;;9.68;45.94
12182;BME280;6154;51.550;12.138;2023-05-01T01:53:45;100873.38;;;9.66;46.06
12182;BME280;6154;51.550;12.138;2023-05-01T01:56:17;100863.75;;;9.65;45.83
12182;BME280;6154;51.550;12.138;2023-05-01T01:58:48;100873.53;;;9.63;45.50
12182;BME280;6154;51.550;12.138;2023-05-01T02:01:19;100863.00;;;9.62;45.84
12182;BME280;6154;51.550;12.138;2023-05-01T02:03:49;100868.44;;;9.59;45.44
12182;BME280;6154;51.550;12.138;2023-05-01T02:06:20;100855.28;;;9.57;45.87
12182;BME280;6154;51.550;12.138;2023-05-01T02:08:50;100858.88;;;9.56;45.71
12182;BME280;6154;51.550;12.138;2023-05-01T02:11:19;100851.88;;;9.55;45.54
12182;BME280;6154;51.550;12.138;2023-05-01T02:13:49;100854.50;;;9.55;45.83
12182;BME280;6154;51.550;12.138;2023-05-01T02:16:19;100850.94;;;9.56;46.43
12182;BME280;6154;51.550;12.138;2023-05-01T02:18:49;100845.72;;;9.55;46.69
12182;BME280;6154;51.550;12.138;2023-05-01T02:21:20;100850.16;;;9.54;46.03
12182;BME280;6154;51.550;12.138;2023-05-01T02:23:49;100844.13;;;9.50;46.87
12182;BME280;6154;51.550;12.138;2023-05-01T02:26:20;100840.56;;;9.51;47.00
12182;BME280;6154;51.550;12.138;2023-05-01T02:28:51;100838.06;;;9.48;47.46
12182;BME280;6154;51.550;12.138;2023-05-01T02:31:19;100832.91;;;9.45;47.68
12182;BME280;6154;51.550;12.138;2023-05-01T02:33:47;100826.84;;;9.43;47.07
12182;BME280;6154;51.550;12.138;2023-05-01T02:36:16;100824.22;;;9.43;47.24
12182;BME280;6154;51.550;12.138;2023-05-01T02:38:46;100827.97;;;9.38;47.82
12182;BME280;6154;51.550;12.138;2023-05-01T02:41:19;100827.34;;;9.31;48.84
12182;BME280;6154;51.550;12.138;2023-05-01T02:43:52;100812.50;;;9.29;48.77
12182;BME280;6154;51.550;12.138;2023-05-01T02:46:24;100806.44;;;9.27;48.40
12182;BME280;6154;51.550;12.138;2023-05-01T02:48:54;100809.16;;;9.25;48.37
12182;BME280;6154;51.550;12.138;2023-05-01T02:51:24;100806.53;;;9.25;47.97
12182;BME280;6154;51.550;12.138;2023-05-01T02:53:55;100806.44;;;9.27;47.71
12182;BME280;6154;51.550;12.138;2023-05-01T02:56:25;100803.88;;;9.25;47.86
12182;BME280;6154;51.550;12.138;2023-05-01T02:58:54;100796.81;;;9.26;48.09
12182;BME280;6154;51.550;12.138;2023-05-01T03:01:22;100794.19;;;9.26;48.39
12182;BME280;6154;51.550;12.138;2023-05-01T03:03:51;100789.94;;;9.21;49.08
12182;BME280;6154;51.550;12.138;2023-05-01T03:06:19;100786.44;;;9.21;48.77
12182;BME280;6154;51.550;12.138;2023-05-01T03:08:47;100783.09;;;9.17;48.96
12182;BME280;6154;51.550;12.138;2023-05-01T03:11:17;100782.31;;;9.15;48.21
12182;BME280;6154;51.550;12.138;2023-05-01T03:13:45;100778.94;;;9.12;48.62
12182;BME280;6154;51.550;12.138;2023-05-01T03:16:13;100777.28;;;9.09;48.80
12182;BME280;6154;51.550;12.138;2023-05-01T03:18:41;100773.00;;;9.07;47.97
12182;BME280;6154;51.550;12.138;2023-05-01T03:21:09;100775.84;;;9.02;48.43
12182;BME280;6154;51.550;12.138;2023-05-01T03:23:38;100767.09;;;9.00;48.52
12182;BME280;6154;51.550;12.138;2023-05-01T03:26:07;100765.47;;;8.98;48.83
12182;BME280;6154;51.550;12.138;2023-05-01T03:28:36;100763.97;;;8.92;49.25
12182;BME280;6154;51.550;12.138;2023-05-01T03:31:05;100757.09;;;8.88;48.84
12182;BME280;6154;51.550;12.138;2023-05-01T03:33:34;100762.34;;;8.88;48.54
12182;BME280;6154;51.550;12.138;2023-05-01T03:36:04;100753.66;;;8.86;48.91
12182;BME280;6154;51.550;12.138;2023-05-01T03:38:32;100754.59;;;8.85;48.73
12182;BME280;6154;51.550;12.138;2023-05-01T03:41:02;100746.75;;;8.83;48.84
12182;BME280;6154;51.550;12.138;2023-05-01T03:43:33;100751.94;;;8.85;48.31
12182;BME280;6154;51.550;12.138;2023-05-01T03:46:03;100750.16;;;8.85;48.38
12182;BME280;6154;51.550;12.138;2023-05-01T03:48:32;100737.09;;;8.82;48.80
12182;BME280;6154;51.550;12.138;2023-05-01T03:51:00;100741.38;;;8.85;48.75
12182;BME280;6154;51.550;12.138;2023-05-01T03:53:29;100739.59;;;8.85;48.70
12182;BME280;6154;51.550;12.138;2023-05-01T03:55:58;100742.19;;;8.87;48.63
12182;BME280;6154;51.550;12.138;2023-05-01T03:58:26;100726.34;;;8.87;48.32
12182;BME280;6154;51.550;12.138;2023-05-01T04:00:55;100731.47;;;8.90;48.07
12182;BME280;6154;51.550;12.138;2023-05-01T04:03:28;100736.66;;;8.93;47.88
12182;BME280;6154;51.550;12.138;2023-05-01T04:05:56;100736.50;;;8.96;47.97
12182;BME280;6154;51.550;12.138;2023-05-01T04:08:25;100732.78;;;9.00;47.68
12182;BME280;6154;51.550;12.138;2023-05-01T04:10:54;100727.41;;;9.03;47.60
12182;BME280;6154;51.550;12.138;2023-05-01T04:13:22;100729.75;;;9.09;47.33
12182;BME280;6154;51.550;12.138;2023-05-01T04:15:50;100724.28;;;9.14;47.65
12182;BME280;6154;51.550;12.138;2023-05-01T04:18:22;100727.50;;;9.20;47.55
12182;BME280;6154;51.550;12.138;2023-05-01T04:20:54;100726.31;;;9.28;47.46
12182;BME280;6154;51.550;12.138;2023-05-01T04:23:22;100728.59;;;9.35;47.01
12182;BME280;6154;51.550;12.138;2023-05-01T04:25:52;100732.53;;;9.45;46.97
12182;BME280;6154;51.550;12.138;2023-05-01T04:28:20;100737.41;;;9.55;47.03
12182;BME280;6154;51.550;12.138;2023-05-01T04:30:49;100730.91;;;9.62;46.94
12182;BME280;6154;51.550;12.138;2023-05-01T04:33:17;100738.56;;;9.68;46.71
12182;BME280;6154;51.550;12.138;2023-05-01T04:35:45;100736.50;;;9.74;47.37
12182;BME280;6154;51.550;12.138;2023-05-01T04:38:16;100738.78;;;9.82;47.32
12182;BME280;6154;51.550;12.138;2023-05-01T04:40:45;100730.47;;;9.90;46.97
12182;BME280;6154;51.550;12.138;2023-05-01T04:43:13;100735.31;;;9.99;46.98
12182;BME280;6154;51.550;12.138;2023-05-01T04:45:43;100736.75;;;10.06;47.07
12182;BME280;6154;51.550;12.138;2023-05-01T04:48:11;100735.53;;;10.13;47.35
12182;BME280;6154;51.550;12.138;2023-05-01T04:50:39;100736.00;;;10.21;47.17
12182;BME280;6154;51.550;12.138;2023-05-01T04:53:07;100732.94;;;10.30;46.83
12182;BME280;6154;51.550;12.138;2023-05-01T04:55:37;100735.91;;;10.42;47.46
12182;BME280;6154;51.550;12.138;2023-05-01T04:58:05;100728.37;;;10.51;46.92
12182;BME280;6154;51.550;12.138;2023-05-01T05:00:34;100735.84;;;10.60;46.86
12182;BME280;6154;51.550;12.138;2023-05-01T05:03:04;100732.75;;;10.70;46.84
12182;BME280;6154;51.550;12.138;2023-05-01T05:05:32;100728.78;;;10.78;47.25
12182;BME280;6154;51.550;12.138;2023-05-01T05:08:01;100736.34;;;10.86;47.36
12182;BME280;6154;51.550;12.138;2023-05-01T05:10:30;100731.50;;;10.94;47.34
12182;BME280;6154;51.550;12.138;2023-05-01T05:13:00;100742.50;;;11.04;47.39
12182;BME280;6154;51.550;12.138;2023-05-01T05:15:29;100742.88;;;11.13;47.26
12182;BME280;6154;51.550;12.138;2023-05-01T05:17:57;100728.19;;;11.23;47.56
12182;BME280;6154;51.550;12.138;2023-05-01T05:20:26;100732.94;;;11.34;47.32
12182;BME280;6154;51.550;12.138;2023-05-01T05:22:55;100734.06;;;11.46;47.16
12182;BME280;6154;51.550;12.138;2023-05-01T05:25:23;100731.59;;;11.59;47.45
12182;BME280;6154;51.550;12.138;2023-05-01T05:27:51;100734.44;;;11.71;46.86
12182;BME280;6154;51.550;12.138;2023-05-01T05:30:21;100723.34;;;11.80;46.56
12182;BME280;6154;51.550;12.138;2023-05-01T05:32:49;100725.41;;;11.91;46.57
12182;BME280;6154;51.550;12.138;2023-05-01T05:35:19;100723.19;;;11.99;46.46
12182;BME280;6154;51.550;12.138;2023-05-01T05:37:47;100725.31;;;12.08;46.85
12182;BME280;6154;51.550;12.138;2023-05-01T05:40:16;100721.63;;;12.11;49.01
12182;BME280;6154;51.550;12.138;2023-05-01T05:42:45;100721.63;;;12.27;48.03
12182;BME280;6154;51.550;12.138;2023-05-01T05:45:14;100720.72;;;12.42;47.82
12182;BME280;6154;51.550;12.138;2023-05-01T05:47:44;100715.47;;;12.56;47.75
12182;BME280;6154;51.550;12.138;2023-05-01T05:50:13;100717.50;;;12.67;48.02
12182;BME280;6154;51.550;12.138;2023-05-01T05:52:42;100711.56;;;12.78;47.60
12182;BME280;6154;51.550;12.138;2023-05-01T05:55:10;100710.34;;;12.83;47.80
12182;BME280;6154;51.550;12.138;2023-05-01T05:57:39;100709.50;;;12.83;48.27
12182;BME280;6154;51.550;12.138;2023-05-01T06:00:10;100709.00;;;12.90;48.26
12182;BME280;6154;51.550;12.138;2023-05-01T06:02:41;100707.06;;;12.94;48.59
12182;BME280;6154;51.550;12.138;2023-05-01T06:05:11;100706.09;;;13.09;48.22
12182;BME280;6154;51.550;12.138;2023-05-01T06:07:40;100705.75;;;13.15;48.30
12182;BME280;6154;51.550;12.138;2023-05-01T06:10:09;100704.25;;;13.26;48.24
12182;BME280;6154;51.550;12.138;2023-05-01T06:12:38;100709.00;;;13.35;49.27
12182;BME280;6154;51.550;12.138;2023-05-01T06:15:15;100704.63;;;13.48;48.80
12182;BME280;6154;51.550;12.138;2023-05-01T06:17:45;100693.31;;;13.59;48.85
12182;BME280;6154;51.550;12.138;2023-05-01T06:20:14;100695.19;;;13.71;47.93
12182;BME280;6154;51.550;12.138;2023-05-01T06:22:43;100695.81;;;13.89;48.07
12182;BME280;6154;51.550;12.138;2023-05-01T06:25:13;100699.09;;;14.06;47.13
12182;BME280;6154;51.550;12.138;2023-05-01T06:27:41;100700.09;;;14.18;46.34
12182;BME280;6154;51.550;12.138;2023-05-01T06:30:10;100693.69;;;14.35;47.04
12182;BME280;6154;51.550;12.138;2023-05-01T06:32:39;100694.94;;;14.42;46.42
12182;BME280;6154;51.550;12.138;2023-05-01T06:35:09;100692.66;;;14.50;46.61
12182;BME280;6154;51.550;12.138;2023-05-01T06:37:39;100698.91;;;14.63;46.51
12182;BME280;6154;51.550;12.138;2023-05-01T06:40:08;100687.06;;;14.80;46.53
12182;BME280;6154;51.550;12.138;2023-05-01T06:42:37;100690.41;;;14.97;46.17
12182;BME280;6154;51.550;12.138;2023-05-01T06:45:06;100682.94;;;15.14;47.11
12182;BME280;6154;51.550;12.138;2023-05-01T06:47:34;100690.81;;;15.29;47.84
12182;BME280;6154;51.550;12.138;2023-05-01T06:50:03;100688.34;;;15.38;47.33
12182;BME280;6154;51.550;12.138;2023-05-01T06:52:33;100693.12;;;15.59;47.08
12182;BME280;6154;51.550;12.138;2023-05-01T06:55:02;100683.59;;;15.80;46.84
12182;BME280;6154;51.550;12.138;2023-05-01T06:57:31;100679.25;;;16.03;47.17
12182;BME280;6154;51.550;12.138;2023-05-01T07:00:00;100673.88;;;16.16;47.15
12182;BME280;6154;51.550;12.138;2023-05-01T07:02:28;100669.72;;;16.35;46.18
12182;BME280;6154;51.550;12.138;2023-05-01T07:04:56;100669.66;;;16.59;46.38
12182;BME280;6154;51.550;12.138;2023-05-01T07:07:25;100666.34;;;16.80;45.96
12182;BME280;6154;51.550;12.138;2023-05-01T07:09:53;100669.16;;;17.01;46.49
12182;BME280;6154;51.550;12.138;2023-05-01T07:12:23;100670.16;;;17.22;46.14
12182;BME280;6154;51.550;12.138;2023-05-01T07:14:51;100663.00;;;17.45;46.25
12182;BME280;6154;51.550;12.138;2023-05-01T07:17:19;100665.16;;;17.73;46.01
12182;BME280;6154;51.550;12.138;2023-05-01T07:19:48;100662.31;;;17.97;45.56
12182;BME280;6154;51.550;12.138;2023-05-01T07:22:16;100664.34;;;18.16;45.87
12182;BME280;6154;51.550;12.138;2023-05-01T07:24:44;100662.31;;;18.29;45.74
12182;BME280;6154;51.550;12.138;2023-05-01T07:27:12;100666.78;;;18.40;45.34
12182;BME280;6154;51.550;12.138;2023-05-01T07:29:42;100664.53;;;18.56;45.53
12182;BME280;6154;51.550;12.138;2023-05-01T07:32:10;100661.53;;;18.71;45.22
12182;BME280;6154;51.550;12.138;2023-05-01T07:34:39;100656.81;;;18.84;45.06
12182;BME280;6154;51.550;12.138;2023-05-01T07:37:07;100661.53;;;18.91;44.96
12182;BME280;6154;51.550;12.138;2023-05-01T07:39:35;100651.72;;;19.02;44.65
12182;BME280;6154;51.550;12.138;2023-05-01T07:42:04;100652.31;;;19.05;44.84
12182;BME280;6154;51.550;12.138;2023-05-01T07:44:32;100650.97;;;19.20;44.75
12182;BME280;6154;51.550;12.138;2023-05-01T07:47:05;100653.53;;;19.32;44.56
12182;BME280;6154;51.550;12.138;2023-05-01T07:49:35;100651.75;;;19.42;43.87
12182;BME280;6154;51.550;12.138;2023-05-01T07:52:04;100649.66;;;19.45;44.25
12182;BME280;6154;51.550;12.138;2023-05-01T07:54:33;100636.66;;;19.50;44.58
12182;BME280;6154;51.550;12.138;2023-05-01T07:57:02;100637.28;;;19.64;44.53
12182;BME280;6154;51.550;12.138;2023-05-01T07:59:30;100631.09;;;19.73;44.01
12182;BME280;6154;51.550;12.138;2023-05-01T08:01:59;100631.41;;;19.79;44.21
12182;BME280;6154;51.550;12.138;2023-05-01T08:04:29;100633.81;;;19.92;44.11
12182;BME280;6154;51.550;12.138;2023-05-01T08:06:57;100623.37;;;20.08;44.29
12182;BME280;6154;51.550;12.138;2023-05-01T08:09:25;100627.63;;;20.21;44.34
12182;BME280;6154;51.550;12.138;2023-05-01T08:11:53;100632.28;;;20.38;44.17
12182;BME280;6154;51.550;12.138;2023-05-01T08:14:22;100629.78;;;20.46;43.79
12182;BME280;6154;51.550;12.138;2023-05-01T08:16:50;100621.78;;;20.64;43.69
12182;BME280;6154;51.550;12.138;2023-05-01T08:19:21;100622.38;;;20.67;43.47
12182;BME280;6154;51.550;12.138;2023-05-01T08:21:51;100625.41;;;20.92;43.65
12182;BME280;6154;51.550;12.138;2023-05-01T08:24:19;100618.66;;;20.88;43.24
12182;BME280;6154;51.550;12.138;2023-05-01T08:26:48;100614.44;;;21.13;43.50
12182;BME280;6154;51.550;12.138;2023-05-01T08:29:16;100617.66;;;21.36;43.32
12182;BME280;6154;51.550;12.138;2023-05-01T08:31:44;100614.38;;;21.60;43.39
12182;BME280;6154;51.550;12.138;2023-05-01T08:34:12;100618.97;;;21.77;43.12
12182;BME280;6154;51.550;12.138;2023-05-01T08:36:41;100613.34;;;21.88;42.79
12182;BME280;6154;51.550;12.138;2023-05-01T08:39:10;100606.19;;;21.97;42.38
12182;BME280;6154;51.550;12.138;2023-05-01T08:41:39;100602.31;;;22.09;42.54
12182;BME280;6154;51.550;12.138;2023-05-01T08:44:07;100609.53;;;22.26;42.75
12182;BME280;6154;51.550;12.138;2023-05-01T08:46:46;100601.88;;;22.40;42.36
12182;BME280;6154;51.550;12.138;2023-05-01T08:49:16;100600.56;;;22.44;40.47
12182;BME280;6154;51.550;12.138;2023-05-01T08:51:46;100599.78;;;22.51;42.18
12182;BME280;6154;51.550;12.138;2023-05-01T08:54:19;100601.03;;;22.57;42.35
12182;BME280;6154;51.550;12.138;2023-05-01T08:56:50;100596.41;;;22.49;41.99
12182;BME280;6154;51.550;12.138;2023-05-01T08:59:20;100599.34;;;22.38;42.02
12182;BME280;6154;51.550;12.138;2023-05-01T09:01:50;100590.06;;;22.58;42.39
12182;BME280;6154;51.550;12.138;2023-05-01T09:04:19;100581.84;;;22.86;42.26
12182;BME280;6154;51.550;12.138;2023-05-01T09:06:48;100577.69;;;23.00;41.99
12182;BME280;6154;51.550;12.138;2023-05-01T09:09:18;100576.72;;;23.09;42.17
12182;BME280;6154;51.550;12.138;2023-05-01T09:11:46;100572.72;;;23.21;41.68
12182;BME280;6154;51.550;12.138;2023-05-01T09:14:14;100568.41;;;23.36;42.20
12182;BME280;6154;51.550;12.138;2023-05-01T09:16:43;100565.63;;;23.62;41.87
12182;BME280;6154;51.550;12.138;2023-05-01T09:19:11;100562.13;;;23.78;41.79
12182;BME280;6154;51.550;12.138;2023-05-01T09:21:39;100556.41;;;23.97;41.71
12182;BME280;6154;51.550;12.138;2023-05-01T09:24:07;100558.06;;;24.15;41.52
12182;BME280;6154;51.550;12.138;2023-05-01T09:26:39;100555.06;;;24.42;41.53
12182;BME280;6154;51.550;12.138;2023-05-01T09:29:08;100552.69;;;24.55;40.55
12182;BME280;6154;51.550;12.138;2023-05-01T09:31:37;100555.84;;;24.75;41.14
12182;BME280;6154;51.550;12.138;2023-05-01T09:34:05;100555.94;;;24.98;41.02
12182;BME280;6154;51.550;12.138;2023-05-01T09:36:34;100546.63;;;25.01;40.78
12182;BME280;6154;51.550;12.138;2023-05-01T09:39:03;100545.91;;;25.15;40.67
12182;BME280;6154;51.550;12.138;2023-05-01T09:41:31;100547.75;;;25.22;40.55
12182;BME280;6154;51.550;12.138;2023-05-01T09:44:01;100537.72;;;25.31;40.49
12182;BME280;6154;51.550;12.138;2023-05-01T09:46:40;100541.03;;;25.41;40.75
12182;BME280;6154;51.550;12.138;2023-05-01T09:49:08;100535.22;;;25.52;38.81
12182;BME280;6154;51.550;12.138;2023-05-01T09:51:36;100535.25;;;25.44;39.92
12182;BME280;6154;51.550;12.138;2023-05-01T09:54:16;100526.41;;;25.28;40.37
12182;BME280;6154;51.550;12.138;2023-05-01T09:56:46;100519.22;;;25.04;37.77
12182;BME280;6154;51.550;12.138;2023-05-01T09:59:18;100525.63;;;25.42;40.66
12182;BME280;6154;51.550;12.138;2023-05-01T10:01:47;100520.59;;;25.62;40.35
12182;BME280;6154;51.550;12.138;2023-05-01T10:04:28;100511.00;;;25.51;40.61
12182;BME280;6154;51.550;12.138;2023-05-01T10:06:56;100515.63;;;25.65;38.00
12182;BME280;6154;51.550;12.138;2023-05-01T10:09:27;100503.94;;;25.65;40.13
12182;BME280;6154;51.550;12.138;2023-05-01T10:11:55;100509.00;;;25.76;40.19
12182;BME280;6154;51.550;12.138;2023-05-01T10:14:27;100505.94;;;25.79;39.92
12182;BME280;6154;51.550;12.138;2023-05-01T10:16:56;100513.66;;;26.05;39.67
12182;BME280;6154;51.550;12.138;2023-05-01T10:19:25;100504.44;;;26.14;39.84
12182;BME280;6154;51.550;12.138;2023-05-01T10:21:53;100499.47;;;26.41;39.97
12182;BME280;6154;51.550;12.138;2023-05-01T10:24:22;100499.84;;;26.52;39.40
12182;BME280;6154;51.550;12.138;2023-05-01T10:26:51;100494.50;;;26.74;39.18
12182;BME280;6154;51.550;12.138;2023-05-01T10:29:22;100490.38;;;26.92;38.77
12182;BME280;6154;51.550;12.138;2023-05-01T10:31:52;100490.84;;;27.11;38.84
12182;BME280;6154;51.550;12.138;2023-05-01T10:34:21;100491.31;;;27.14;38.23
12182;BME280;6154;51.550;12.138;2023-05-01T10:36:57;100490.47;;;27.14;38.37
12182;BME280;6154;51.550;12.138;2023-05-01T10:39:31;100480.38;;;27.08;37.88
12182;BME280;6154;51.550;12.138;2023-05-01T10:42:05;100478.75;;;26.84;36.35
12182;BME280;6154;51.550;12.138;2023-05-01T10:44:37;100476.44;;;26.81;37.72
12182;BME280;6154;51.550;12.138;2023-05-01T10:47:44;100470.16;;;26.80;37.64
12182;BME280;6154;51.550;12.138;2023-05-01T10:50:15;100464.72;;;26.80;36.25
12182;BME280;6154;51.550;12.138;2023-05-01T10:53:15;100462.12;;;26.87;38.72
12182;BME280;6154;51.550;12.138;2023-05-01T10:55:45;100449.28;;;26.81;32.83
12182;BME280;6154;51.550;12.138;2023-05-01T10:58:54;100443.66;;;26.82;37.81
12182;BME280;6154;51.550;12.138;2023-05-01T11:01:31;100448.25;;;26.82;34.76
12182;BME280;6154;51.550;12.138;2023-05-01T11:04:03;100446.09;;;26.77;36.37
12182;BME280;6154;51.550;12.138;2023-05-01T11:06:34;100444.50;;;26.83;37.34
12182;BME280;6154;51.550;12.138;2023-05-01T11:09:37;100439.25;;;26.96;37.80
12182;BME280;6154;51.550;12.138;2023-05-01T11:12:08;100435.41;;;26.90;34.09
12182;BME280;6154;51.550;12.138;2023-05-01T11:15:07;100437.94;;;27.07;37.36
12182;BME280;6154;51.550;12.138;2023-05-01T11:17:46;100432.66;;;27.05;34.23
12182;BME280;6154;51.550;12.138;2023-05-01T11:20:45;100434.47;;;26.83;35.31
12182;BME280;6154;51.550;12.138;2023-05-01T11:23:16;100429.06;;;26.54;33.31
12182;BME280;6154;51.550;12.138;2023-05-01T11:25:46;100421.09;;;26.52;37.23
12182;BME280;6154;51.550;12.138;2023-05-01T11:28:19;100425.03;;;26.79;37.83
12182;BME280;6154;51.550;12.138;2023-05-01T11:30:48;100414.38;;;27.14;36.60
12182;BME280;6154;51.550;12.138;2023-05-01T11:33:23;100420.09;;;27.19;37.16
12182;BME280;6154;51.550;12.138;2023-05-01T11:36:00;100409.09;;;27.27;34.58
12182;BME280;6154;51.550;12.138;2023-05-01T11:38:29;100408.44;;;27.46;34.75
12182;BME280;6154;51.550;12.138;2023-05-01T11:40:59;100399.09;;;27.56;36.13
12182;BME280;6154;51.550;12.138;2023-05-01T11:43:28;100405.06;;;27.66;36.79
12182;BME280;6154;51.550;12.138;2023-05-01T11:45:56;100394.81;;;27.89;36.85
12182;BME280;6154;51.550;12.138;2023-05-01T11:48:30;100392.94;;;27.90;36.59
12182;BME280;6154;51.550;12.138;2023-05-01T11:51:00;100396.03;;;28.15;36.59
12182;BME280;6154;51.550;12.138;2023-05-01T11:53:28;100399.94;;;28.33;35.28
12182;BME280;6154;51.550;12.138;2023-05-01T11:55:56;100398.25;;;28.32;35.72
12182;BME280;6154;51.550;12.138;2023-05-01T11:58:32;100387.47;;;28.18;34.94
12182;BME280;6154;51.550;12.138;2023-05-01T12:01:03;100384.97;;;28.23;32.66
12182;BME280;6154;51.550;12.138;2023-05-01T12:03:39;100375.38;;;28.27;34.82
12182;BME280;6154;51.550;12.138;2023-05-01T12:06:11;100378.63;;;28.37;33.94
12182;BME280;6154;51.550;12.138;2023-05-01T12:08:46;100372.97;;;28.39;34.72
12182;BME280;6154;51.550;12.138;2023-05-01T12:11:17;100363.53;;;28.06;30.15
12182;BME280;6154;51.550;12.138;2023-05-01T12:13:46;100355.31;;;28.00;34.18
12182;BME280;6154;51.550;12.138;2023-05-01T12:16:16;100356.66;;;28.11;34.61
12182;BME280;6154;51.550;12.138;2023-05-01T12:18:44;100356.38;;;28.05;34.28
12182;BME280;6154;51.550;12.138;2023-05-01T12:21:16;100350.00;;;28.20;34.01
12182;BME280;6154;51.550;12.138;2023-05-01T12:23:44;100352.69;;;28.54;33.15
12182;BME280;6154;51.550;12.138;2023-05-01T12:26:17;100349.00;;;28.69;33.93
12182;BME280;6154;51.550;12.138;2023-05-01T12:28:52;100342.94;;;28.80;32.24
12182;BME280;6154;51.550;12.138;2023-05-01T12:31:21;100349.00;;;28.69;31.25
12182;BME280;6154;51.550;12.138;2023-05-01T12:33:53;100338.31;;;28.67;34.04
12182;BME280;6154;51.550;12.138;2023-05-01T12:36:24;100339.28;;;28.46;31.03
12182;BME280;6154;51.550;12.138;2023-05-01T12:38:54;100340.72;;;28.42;34.07
12182;BME280;6154;51.550;12.138;2023-05-01T12:41:38;100346.41;;;28.47;34.91
12182;BME280;6154;51.550;12.138;2023-05-01T12:44:20;100335.41;;;28.82;33.78
12182;BME280;6154;51.550;12.138;2023-05-01T12:46:54;100327.31;;;29.08;32.96
12182;BME280;6154;51.550;12.138;2023-05-01T12:49:23;100327.53;;;29.13;32.87
12182;BME280;6154;51.550;12.138;2023-05-01T12:51:53;100322.47;;;29.04;34.16
12182;BME280;6154;51.550;12.138;2023-05-01T12:54:23;100316.84;;;29.25;34.48
12182;BME280;6154;51.550;12.138;2023-05-01T12:56:53;100314.38;;;29.50;34.03
12182;BME280;6154;51.550;12.138;2023-05-01T12:59:32;100316.44;;;29.61;34.50
12182;BME280;6154;51.550;12.138;2023-05-01T13:02:03;100315.97;;;29.91;34.03
12182;BME280;6154;51.550;12.138;2023-05-01T13:04:32;100313.44;;;29.96;33.25
12182;BME280;6154;51.550;12.138;2023-05-01T13:07:09;100316.41;;;29.88;34.33
12182;BME280;6154;51.550;12.138;2023-05-01T13:09:38;100305.91;;;29.91;30.48
12182;BME280;6154;51.550;12.138;2023-05-01T13:12:06;100316.41;;;29.81;33.18
12182;BME280;6154;51.550;12.138;2023-05-01T13:14:37;100306.78;;;29.72;33.20